Time;durP1;ratioP1;P1;durP2;ratioP2;P2;SDS_P1;SDS_P2;PMS_P1;PMS_P2;Temp;Humidity;BMP_temperature;BMP_pressure;BME280_temperature;BME280_humidity;BME280_pressure;Samples;Min_cycle;Max_cycle;Signal;HPM_P1;HPM_P2
2022/03/10 00:02:13;;;;;;;13.80;11.02;;;17.50;41.60;;;;;;4971884;28;92943;-68
2022/03/10 00:04:41;;;;;;;14.25;10.32;;;17.50;41.50;;;;;;4972896;28;95096;-68
2022/03/10 00:07:07;;;;;;;12.15;10.20;;;17.50;41.50;;;;;;4973332;28;92902;-68
2022/03/10 00:09:33;;;;;;;12.63;10.88;;;17.40;41.40;;;;;;4972087;28;92619;-68
2022/03/10 00:12:00;;;;;;;15.13;11.48;;;17.40;41.40;;;;;;4972600;28;92175;-68
2022/03/10 00:14:26;;;;;;;12.50;10.55;;;17.40;41.40;;;;;;4971588;28;93122;-68
2022/03/10 00:16:52;;;;;;;13.23;10.05;;;17.40;41.40;;;;;;4971390;28;92729;-68
2022/03/10 00:19:19;;;;;;;13.00;10.80;;;17.40;41.40;;;;;;4970443;28;95417;-69
2022/03/10 00:21:45;;;;;;;12.48;10.30;;;17.40;41.40;;;;;;4972451;28;92516;-68
2022/03/10 00:24:11;;;;;;;12.15;10.82;;;17.40;41.40;;;;;;4970645;28;94030;-69
2022/03/10 00:26:37;;;;;;;12.80;11.07;;;17.40;41.40;;;;;;4971466;28;93955;-68
2022/03/10 00:29:05;;;;;;;13.25;10.90;;;17.40;41.40;;;;;;4971900;28;92723;-68
2022/03/10 00:31:32;;;;;;;12.65;10.20;;;17.30;41.40;;;;;;4970946;28;93100;-68
2022/03/10 00:33:57;;;;;;;12.75;10.48;;;17.30;41.40;;;;;;4971314;28;93157;-68
2022/03/10 00:36:23;;;;;;;12.35;10.45;;;17.30;41.50;;;;;;4970863;28;92987;-68
2022/03/10 00:38:49;;;;;;;12.88;10.57;;;17.30;41.50;;;;;;4971675;28;92540;-68
2022/03/10 00:41:15;;;;;;;13.10;10.77;;;17.30;41.40;;;;;;4971089;28;92759;-69
2022/03/10 00:43:41;;;;;;;13.73;11.27;;;17.30;41.40;;;;;;4969352;28;96236;-68
2022/03/10 00:46:06;;;;;;;12.73;11.07;;;17.30;41.40;;;;;;4971131;28;95109;-68
2022/03/10 00:48:32;;;;;;;12.10;10.82;;;17.30;41.50;;;;;;4971270;28;94503;-68
2022/03/10 00:50:58;;;;;;;13.32;11.13;;;17.30;41.50;;;;;;4971070;28;92953;-68
2022/03/10 00:53:23;;;;;;;11.73;10.30;;;17.30;41.40;;;;;;4970633;28;99395;-68
2022/03/10 00:55:49;;;;;;;13.80;10.52;;;17.20;41.40;;;;;;4970665;28;92865;-68
2022/03/10 00:58:15;;;;;;;12.68;10.80;;;17.20;41.40;;;;;;4971656;28;93180;-70
2022/03/10 01:00:41;;;;;;;13.60;11.85;;;17.20;41.40;;;;;;4970621;28;98679;-68
2022/03/10 01:03:07;;;;;;;14.32;11.38;;;17.20;41.40;;;;;;4970007;28;93284;-68
2022/03/10 01:05:33;;;;;;;14.48;11.50;;;17.20;41.40;;;;;;4969900;28;96547;-68
2022/03/10 01:08:00;;;;;;;13.45;10.95;;;17.20;41.40;;;;;;4970406;28;95395;-68
2022/03/10 01:10:26;;;;;;;13.00;11.10;;;17.20;41.40;;;;;;4970549;28;92610;-68
2022/03/10 01:12:52;;;;;;;12.88;11.05;;;17.20;41.40;;;;;;4969283;28;95594;-68
2022/03/10 01:15:26;;;;;;;15.52;11.60;;;17.20;41.30;;;;;;4971083;28;92962;-68
2022/03/10 01:17:52;;;;;;;13.38;11.20;;;17.20;41.40;;;;;;4969587;28;92964;-68
2022/03/10 01:20:20;;;;;;;13.02;10.73;;;17.20;41.40;;;;;;4971000;28;92554;-68
2022/03/10 01:22:46;;;;;;;13.20;11.13;;;17.20;41.40;;;;;;4970959;28;94112;-68
2022/03/10 01:25:12;;;;;;;13.52;11.18;;;17.20;41.30;;;;;;4970710;28;92688;-68
2022/03/10 01:27:38;;;;;;;14.95;11.45;;;17.10;41.20;;;;;;4969328;28;92924;-68
2022/03/10 01:30:08;;;;;;;13.07;10.98;;;17.10;41.30;;;;;;4971178;28;92803;-68
2022/03/10 01:32:35;;;;;;;12.43;11.02;;;17.10;41.20;;;;;;4969277;28;96570;-68
2022/03/10 01:35:02;;;;;;;14.95;11.65;;;17.10;41.20;;;;;;4970530;28;95218;-69
2022/03/10 01:37:29;;;;;;;13.48;11.48;;;17.10;41.20;;;;;;4968259;28;92843;-68
2022/03/10 01:39:55;;;;;;;14.07;11.30;;;17.10;41.20;;;;;;4971090;28;93078;-69
2022/03/10 01:42:22;;;;;;;14.07;11.63;;;17.10;41.20;;;;;;4969739;28;93111;-68
2022/03/10 01:44:52;;;;;;;12.48;10.63;;;17.10;41.10;;;;;;4969697;28;93229;-68
2022/03/10 01:47:19;;;;;;;12.70;10.63;;;17.10;41.20;;;;;;4970651;28;92977;-70
2022/03/10 01:49:45;;;;;;;13.77;11.75;;;17.10;41.10;;;;;;4971895;28;92363;-69
2022/03/10 01:52:12;;;;;;;15.52;12.30;;;17.10;41.10;;;;;;4969599;28;93886;-69
2022/03/10 01:54:40;;;;;;;12.57;11.27;;;17.00;41.00;;;;;;4969920;28;94658;-68
2022/03/10 01:57:06;;;;;;;13.07;10.95;;;17.10;41.20;;;;;;4968360;28;94934;-68
2022/03/10 01:59:32;;;;;;;13.30;11.73;;;17.00;41.00;;;;;;4969879;28;93122;-69
2022/03/10 02:01:58;;;;;;;13.13;11.52;;;17.00;41.10;;;;;;4968901;28;94497;-69
2022/03/10 02:04:23;;;;;;;14.35;11.45;;;17.00;41.10;;;;;;4970610;28;93010;-69
2022/03/10 02:06:49;;;;;;;13.60;11.30;;;17.00;41.00;;;;;;4970583;28;93021;-68
2022/03/10 02:11:59;;;;;;;13.02;11.23;;;17.00;41.00;;;;;;4970283;28;92956;-69
2022/03/10 02:17:20;;;;;;;13.45;11.27;;;17.00;41.00;;;;;;4971038;28;93121;-68
2022/03/10 02:19:51;;;;;;;13.38;11.23;;;17.00;41.00;;;;;;4970065;28;92791;-68
2022/03/10 02:22:18;;;;;;;14.20;11.25;;;16.90;41.00;;;;;;4967256;28;95550;-69
2022/03/10 02:24:44;;;;;;;13.63;11.65;;;16.90;40.90;;;;;;4969482;28;96309;-68
2022/03/10 02:27:19;;;;;;;12.65;11.07;;;16.90;40.90;;;;;;4969707;28;92617;-68
2022/03/10 02:30:05;;;;;;;14.30;11.00;;;16.90;40.90;;;;;;4969549;28;92709;-68
2022/03/10 02:32:31;;;;;;;13.30;11.13;;;16.90;40.90;;;;;;4967587;28;94182;-68
2022/03/10 02:34:57;;;;;;;11.90;10.40;;;16.90;41.00;;;;;;4969443;28;93353;-69
2022/03/10 02:37:22;;;;;;;13.13;11.38;;;16.90;40.90;;;;;;4968415;28;93062;-68
2022/03/10 02:39:48;;;;;;;13.27;11.80;;;16.90;40.90;;;;;;4969279;28;96104;-69
2022/03/10 02:42:14;;;;;;;13.05;11.57;;;16.90;41.00;;;;;;4968710;28;94245;-70
2022/03/10 02:44:47;;;;;;;13.30;11.32;;;16.90;40.90;;;;;;4967648;28;93575;-69
2022/03/10 02:47:13;;;;;;;13.32;11.50;;;16.80;40.70;;;;;;4950385;28;95306;-68
2022/03/10 02:49:40;;;;;;;13.07;11.43;;;16.90;40.80;;;;;;4972895;28;93867;-68
2022/03/10 02:52:07;;;;;;;13.90;11.63;;;16.80;40.80;;;;;;4972147;28;93146;-68
2022/03/10 02:54:33;;;;;;;14.85;12.20;;;16.90;40.80;;;;;;4972197;28;93985;-69
2022/03/10 02:56:59;;;;;;;14.27;11.70;;;16.80;40.70;;;;;;4973001;28;92982;-69
2022/03/10 02:59:25;;;;;;;13.73;11.05;;;16.80;40.80;;;;;;4972651;28;92525;-69
2022/03/10 03:01:51;;;;;;;13.38;11.68;;;16.80;40.70;;;;;;4971772;28;94103;-69
2022/03/10 03:04:17;;;;;;;14.32;11.52;;;16.80;40.80;;;;;;4972529;28;92787;-69
2022/03/10 03:06:42;;;;;;;15.00;11.50;;;16.80;40.70;;;;;;4972342;28;92499;-69
2022/03/10 03:09:08;;;;;;;13.13;11.68;;;16.80;40.70;;;;;;4972878;28;92797;-69
2022/03/10 03:11:34;;;;;;;13.00;11.55;;;16.80;40.70;;;;;;4971749;28;96573;-69
2022/03/10 03:14:01;;;;;;;13.43;11.75;;;16.70;40.60;;;;;;4972824;28;95678;-69
2022/03/10 03:16:27;;;;;;;13.00;11.60;;;16.80;40.70;;;;;;4973269;28;93030;-69
2022/03/10 03:18:53;;;;;;;14.75;11.70;;;16.80;40.70;;;;;;4973566;28;92596;-69
2022/03/10 03:21:20;;;;;;;13.07;11.20;;;16.70;40.60;;;;;;4973593;28;93116;-71
2022/03/10 03:23:46;;;;;;;14.23;11.98;;;16.70;40.60;;;;;;4972262;28;93914;-69
2022/03/10 03:26:11;;;;;;;13.73;11.82;;;16.70;40.60;;;;;;4971924;28;92669;-69
2022/03/10 03:28:37;;;;;;;14.50;12.63;;;16.70;40.70;;;;;;4972167;28;91909;-68
2022/03/10 03:31:03;;;;;;;13.98;12.18;;;16.70;40.60;;;;;;4971278;28;94314;-69
2022/03/10 03:33:30;;;;;;;13.13;11.73;;;16.70;40.60;;;;;;4971429;28;94700;-68
2022/03/10 03:35:58;;;;;;;12.98;11.57;;;16.70;40.60;;;;;;4970458;28;94968;-69
2022/03/10 03:38:24;;;;;;;13.00;11.48;;;16.70;40.60;;;;;;4972027;28;92611;-70
2022/03/10 03:40:50;;;;;;;13.13;11.65;;;16.70;40.60;;;;;;4971650;28;94579;-68
2022/03/10 03:43:16;;;;;;;14.15;11.95;;;16.60;40.50;;;;;;4970932;28;94806;-68
2022/03/10 03:45:41;;;;;;;13.82;11.65;;;16.60;40.50;;;;;;4971990;28;92691;-69
2022/03/10 03:48:07;;;;;;;14.93;11.60;;;16.60;40.50;;;;;;4971113;28;94067;-69
2022/03/10 03:50:32;;;;;;;14.02;11.70;;;16.60;40.50;;;;;;4972403;28;93426;-68
2022/03/10 03:52:58;;;;;;;14.00;12.48;;;16.60;40.50;;;;;;4971704;28;93849;-68
2022/03/10 03:55:24;;;;;;;14.45;12.27;;;16.60;40.50;;;;;;4972538;28;92552;-69
2022/03/10 03:57:49;;;;;;;13.85;11.88;;;16.60;40.50;;;;;;4971230;28;92640;-68
2022/03/10 04:00:15;;;;;;;13.63;11.93;;;16.60;40.50;;;;;;4970044;28;102990;-69
2022/03/10 05:45:41;;;;;;;14.18;12.05;;;16.30;40.20;;;;;;4272473;22;93482;-68
2022/03/10 05:48:07;;;;;;;14.82;12.48;;;16.20;40.30;;;;;;4971699;28;92532;-68
2022/03/10 05:50:33;;;;;;;14.38;11.98;;;16.20;40.30;;;;;;4970008;28;96012;-68
2022/03/10 05:52:58;;;;;;;16.33;12.68;;;16.20;40.30;;;;;;4971037;28;95826;-69
2022/03/10 05:55:26;;;;;;;13.23;11.82;;;16.20;40.40;;;;;;4970939;28;92883;-70
2022/03/10 05:57:51;;;;;;;18.60;12.60;;;16.20;40.40;;;;;;4971090;28;92909;-70
2022/03/10 06:00:18;;;;;;;14.38;11.77;;;16.20;40.50;;;;;;4970648;28;93103;-70
2022/03/10 06:02:43;;;;;;;13.95;11.57;;;16.20;40.80;;;;;;4970935;28;93205;-70
2022/03/10 06:05:09;;;;;;;12.95;11.45;;;16.30;41.20;;;;;;4971126;28;93893;-70
2022/03/10 06:07:35;;;;;;;13.27;11.60;;;16.40;41.40;;;;;;4969748;28;91894;-69
2022/03/10 06:10:00;;;;;;;14.23;11.48;;;16.50;41.10;;;;;;4969809;28;93961;-69
2022/03/10 06:12:27;;;;;;;12.82;10.98;;;16.70;40.90;;;;;;4970852;28;93446;-69
2022/03/10 06:15:08;;;;;;;13.95;10.48;;;16.80;40.70;;;;;;4969517;28;94811;-70
2022/03/10 06:17:33;;;;;;;12.02;10.20;;;17.10;40.60;;;;;;4971566;28;92524;-70
2022/03/10 06:19:59;;;;;;;12.20;10.40;;;17.20;40.20;;;;;;4970896;28;98549;-70
2022/03/10 06:22:29;;;;;;;12.80;10.57;;;17.30;40.10;;;;;;4970334;28;93078;-71
2022/03/10 06:24:56;;;;;;;13.52;10.90;;;17.50;39.90;;;;;;4952633;28;93008;-69
2022/03/10 06:27:23;;;;;;;12.55;9.93;;;17.70;39.70;;;;;;4970938;28;93061;-70
2022/03/10 06:29:50;;;;;;;11.65;9.65;;;17.70;39.50;;;;;;4970625;28;94582;-70
2022/03/10 06:32:20;;;;;;;11.45;9.98;;;17.80;40.40;;;;;;4970717;28;93071;-69
2022/03/10 06:34:47;;;;;;;10.68;9.18;;;17.90;39.50;;;;;;4970453;28;92524;-70
2022/03/10 06:37:13;;;;;;;10.75;9.27;;;17.90;39.40;;;;;;4971179;28;92504;-70
2022/03/10 06:39:40;;;;;;;10.88;9.20;;;18.00;39.50;;;;;;4952542;28;98480;-69
2022/03/10 06:42:07;;;;;;;12.07;9.30;;;18.00;39.50;;;;;;4970957;28;95690;-69
2022/03/10 06:44:36;;;;;;;10.80;9.48;;;18.10;39.40;;;;;;4951195;28;92614;-69
2022/03/10 06:47:05;;;;;;;10.00;8.98;;;18.10;39.10;;;;;;4951185;28;93093;-70
2022/03/10 06:49:31;;;;;;;12.07;8.73;;;18.10;39.00;;;;;;4950129;28;93211;-69
2022/03/10 06:51:57;;;;;;;12.13;9.15;;;18.10;38.80;;;;;;4950514;28;93387;-69
2022/03/10 06:54:23;;;;;;;19.30;8.80;;;18.10;38.70;;;;;;4951080;28;92692;-70
2022/03/10 06:56:48;;;;;;;12.10;8.38;;;18.20;38.80;;;;;;4933892;28;92418;-68
2022/03/10 06:59:14;;;;;;;10.82;7.72;;;18.20;39.00;;;;;;4950626;28;93135;-69
2022/03/10 07:01:40;;;;;;;11.20;8.52;;;18.30;39.10;;;;;;4950928;28;93340;-70
2022/03/10 07:04:06;;;;;;;16.73;8.50;;;18.30;39.30;;;;;;4949280;28;95447;-69
2022/03/10 07:06:31;;;;;;;12.73;8.40;;;18.30;39.50;;;;;;4950284;28;94461;-69
2022/03/10 07:08:58;;;;;;;11.30;8.38;;;18.30;39.70;;;;;;4950894;28;94960;-69
2022/03/10 07:11:25;;;;;;;19.42;8.45;;;18.40;39.80;;;;;;4950549;28;93196;-73
2022/03/10 07:13:51;;;;;;;17.77;8.73;;;18.30;40.10;;;;;;4949960;28;92778;-68
2022/03/10 07:16:16;;;;;;;10.32;8.38;;;18.30;40.20;;;;;;4950264;28;93031;-72
2022/03/10 07:18:42;;;;;;;13.43;8.07;;;18.30;40.40;;;;;;4951591;28;93166;-68
2022/03/10 07:21:08;;;;;;;8.95;7.90;;;18.30;40.50;;;;;;4952007;28;92773;-68
2022/03/10 07:23:33;;;;;;;15.55;8.27;;;18.20;40.50;;;;;;4952063;28;92550;-69
2022/03/10 07:26:00;;;;;;;12.15;8.27;;;18.20;40.50;;;;;;4949927;28;93151;-68
2022/03/10 07:28:26;;;;;;;12.57;8.27;;;18.20;40.60;;;;;;4949382;28;96058;-68
2022/03/10 07:30:51;;;;;;;9.15;7.70;;;18.10;40.60;;;;;;4950627;28;95720;-69
2022/03/10 07:33:17;;;;;;;9.88;7.88;;;18.00;40.60;;;;;;4951479;28;92749;-67
2022/03/10 07:35:43;;;;;;;11.00;7.93;;;18.00;40.60;;;;;;4953736;28;92741;-67
2022/03/10 07:38:10;;;;;;;12.60;7.95;;;18.00;40.70;;;;;;4953980;28;92989;-68
2022/03/10 07:40:36;;;;;;;10.57;8.10;;;17.90;40.70;;;;;;4955196;28;94253;-69
2022/03/10 07:43:03;;;;;;;11.75;7.60;;;17.90;40.70;;;;;;4954356;28;93173;-68
2022/03/10 07:45:29;;;;;;;11.13;7.88;;;17.80;40.80;;;;;;4955927;28;92163;-69
2022/03/10 07:47:55;;;;;;;9.52;7.65;;;17.80;40.80;;;;;;4954159;28;92968;-69
2022/03/10 07:50:22;;;;;;;11.55;7.95;;;17.80;40.80;;;;;;4953666;28;93119;-71
2022/03/10 07:52:48;;;;;;;9.68;8.02;;;17.70;40.90;;;;;;4952723;28;95119;-69
2022/03/10 07:55:14;;;;;;;9.32;7.90;;;17.70;40.90;;;;;;4953725;28;93035;-69
2022/03/10 07:57:41;;;;;;;13.25;7.68;;;17.70;41.00;;;;;;4952896;28;100625;-69
2022/03/10 08:00:08;;;;;;;11.95;7.72;;;17.60;40.90;;;;;;4953252;28;93853;-69
2022/03/10 08:02:34;;;;;;;14.32;8.30;;;17.60;41.00;;;;;;4953869;28;92945;-69
2022/03/10 08:05:00;;;;;;;12.23;7.95;;;17.60;41.10;;;;;;4953192;28;92586;-69
2022/03/10 08:07:25;;;;;;;10.27;8.25;;;17.50;41.20;;;;;;4953015;28;93676;-69
2022/03/10 08:09:51;;;;;;;10.05;7.88;;;17.50;41.20;;;;;;4953182;28;94199;-69
2022/03/10 08:12:17;;;;;;;9.90;7.90;;;17.50;41.30;;;;;;4953536;28;92949;-69
2022/03/10 08:14:42;;;;;;;8.77;7.60;;;17.50;41.20;;;;;;4953646;28;92822;-69
2022/03/10 08:17:09;;;;;;;15.98;7.90;;;17.40;41.20;;;;;;4952427;28;102677;-69
2022/03/10 08:19:34;;;;;;;10.70;8.00;;;17.40;41.10;;;;;;4952891;28;96779;-69
2022/03/10 08:22:00;;;;;;;10.90;8.00;;;17.40;41.10;;;;;;4954168;28;92872;-69
2022/03/10 08:24:28;;;;;;;10.70;8.35;;;17.40;41.20;;;;;;4953389;28;92553;-69
2022/03/10 08:26:54;;;;;;;13.25;8.43;;;17.30;41.10;;;;;;4952429;28;93519;-69
2022/03/10 08:29:19;;;;;;;9.13;8.07;;;17.30;41.10;;;;;;4953948;28;95072;-69
2022/03/10 08:31:45;;;;;;;10.05;7.97;;;17.30;41.20;;;;;;4953576;28;93009;-69
2022/03/10 08:34:10;;;;;;;12.30;8.43;;;17.30;41.20;;;;;;4952469;28;92315;-68
2022/03/10 08:36:36;;;;;;;10.90;7.82;;;17.30;41.30;;;;;;4951132;28;93009;-69
2022/03/10 08:39:02;;;;;;;9.27;7.82;;;17.20;41.20;;;;;;4952840;28;93441;-70
2022/03/10 08:41:27;;;;;;;8.95;8.05;;;17.20;41.20;;;;;;4950937;28;95244;-69
2022/03/10 08:43:53;;;;;;;9.45;7.57;;;17.20;41.30;;;;;;4951994;28;92656;-69
2022/03/10 08:46:18;;;;;;;9.98;7.95;;;17.20;41.30;;;;;;4951876;28;93231;-69
2022/03/10 08:48:45;;;;;;;9.77;8.15;;;17.20;41.20;;;;;;4951449;28;93260;-69
2022/03/10 08:51:11;;;;;;;12.35;8.25;;;17.20;41.20;;;;;;4951561;28;92574;-69
2022/03/10 08:53:36;;;;;;;9.57;8.05;;;17.10;41.30;;;;;;4952273;28;92458;-69
2022/03/10 08:56:04;;;;;;;9.02;8.02;;;17.10;41.20;;;;;;4952785;28;93190;-69
2022/03/10 08:58:30;;;;;;;9.65;8.15;;;17.10;41.30;;;;;;4952310;28;92825;-69
2022/03/10 09:00:55;;;;;;;10.23;8.32;;;17.10;41.40;;;;;;4951585;28;93068;-68
2022/03/10 09:03:21;;;;;;;9.85;8.45;;;17.10;41.30;;;;;;4952478;28;92706;-69
2022/03/10 09:05:47;;;;;;;9.27;8.27;;;17.10;41.30;;;;;;4950381;28;96532;-69
2022/03/10 09:08:13;;;;;;;9.35;7.97;;;17.10;41.30;;;;;;4951548;28;95491;-68
2022/03/10 09:10:40;;;;;;;9.27;7.63;;;17.10;41.30;;;;;;4951489;28;92965;-68
2022/03/10 09:13:06;;;;;;;9.93;8.48;;;17.10;41.40;;;;;;4950529;28;92602;-68
2022/03/10 09:15:32;;;;;;;10.50;8.00;;;17.10;41.40;;;;;;4949999;28;93969;-68
2022/03/10 09:17:57;;;;;;;9.90;8.10;;;17.10;41.40;;;;;;4951210;28;93581;-68
2022/03/10 09:20:23;;;;;;;11.70;7.78;;;17.10;42.40;;;;;;4952626;28;93713;-68
2022/03/10 09:22:56;;;;;;;9.25;8.13;;;17.00;41.40;;;;;;4954208;28;91695;-68
2022/03/10 09:25:21;;;;;;;9.25;7.88;;;17.10;41.40;;;;;;4954518;28;93044;-68
2022/03/10 09:27:48;;;;;;;16.20;8.27;;;17.10;41.40;;;;;;4936202;28;92792;-69
2022/03/10 09:30:14;;;;;;;11.63;8.07;;;17.10;41.50;;;;;;4950708;28;95399;-71
2022/03/10 09:32:43;;;;;;;8.35;7.25;;;17.10;42.10;;;;;;4952369;28;92521;-70
2022/03/10 09:35:11;;;;;;;8.95;7.35;;;17.10;42.40;;;;;;4951378;28;94452;-68
2022/03/10 09:37:37;;;;;;;9.63;7.75;;;17.10;42.60;;;;;;4951830;28;92993;-68
2022/03/10 09:40:03;;;;;;;11.52;7.80;;;17.10;42.60;;;;;;4951797;28;92540;-67
2022/03/10 09:42:31;;;;;;;10.45;8.18;;;17.10;42.80;;;;;;4951211;28;93034;-68
2022/03/10 09:45:02;;;;;;;10.23;7.57;;;17.20;42.90;;;;;;4950125;28;94335;-68
2022/03/10 09:47:28;;;;;;;9.38;7.60;;;17.20;42.90;;;;;;4951837;28;94946;-67
2022/03/10 09:49:54;;;;;;;12.02;8.35;;;17.20;43.00;;;;;;4951739;28;93006;-68
2022/03/10 09:52:22;;;;;;;11.73;8.23;;;17.20;42.80;;;;;;4951421;28;92816;-68
2022/03/10 09:54:48;;;;;;;10.88;7.45;;;17.30;43.20;;;;;;4950419;28;95370;-69
2022/03/10 09:57:17;;;;;;;10.18;7.70;;;17.30;43.20;;;;;;4950374;28;96349;-69
2022/03/10 09:59:56;;;;;;;10.52;7.97;;;17.30;43.20;;;;;;4952129;28;92701;-69
2022/03/10 10:02:21;;;;;;;9.18;7.45;;;17.30;43.20;;;;;;4950623;28;93066;-68
2022/03/10 10:04:48;;;;;;;8.98;7.78;;;17.40;43.20;;;;;;4952072;28;93093;-69
2022/03/10 10:07:14;;;;;;;10.38;7.65;;;17.40;43.30;;;;;;4950560;28;93507;-69
2022/03/10 10:09:45;;;;;;;8.57;7.65;;;17.40;43.30;;;;;;4951381;28;92930;-69
2022/03/10 10:12:12;;;;;;;9.43;7.85;;;17.40;43.50;;;;;;4951637;28;92331;-67
2022/03/10 10:14:43;;;;;;;8.52;7.40;;;17.40;43.40;;;;;;4951055;28;92570;-68
2022/03/10 10:17:10;;;;;;;9.85;7.85;;;17.50;43.40;;;;;;4951397;28;93143;-70
2022/03/10 10:19:37;;;;;;;9.23;7.50;;;17.50;43.50;;;;;;4949238;28;94999;-68
2022/03/10 10:22:21;;;;;;;8.68;7.20;;;17.50;43.40;;;;;;4932955;28;94281;-69
2022/03/10 10:24:52;;;;;;;10.07;7.20;;;17.50;43.00;;;;;;4932841;28;93158;-68
2022/03/10 10:27:21;;;;;;;12.13;7.90;;;17.50;42.80;;;;;;4950766;28;93288;-70
2022/03/10 10:29:51;;;;;;;9.40;7.40;;;17.50;43.40;;;;;;4950518;28;93004;-70
2022/03/10 10:32:55;;;;;;;11.80;7.22;;;17.50;43.40;;;;;;4949769;28;92614;-70
2022/03/10 10:35:21;;;;;;;7.95;6.90;;;17.60;43.80;;;;;;4949660;28;93631;-68
2022/03/10 10:37:50;;;;;;;9.40;7.15;;;17.60;43.50;;;;;;4950107;28;92637;-68
2022/03/10 10:40:29;;;;;;;13.18;6.88;;;17.70;43.50;;;;;;4950082;28;92557;-69
2022/03/10 10:42:56;;;;;;;14.38;7.50;;;17.90;43.70;;;;;;4950208;28;92951;-70
2022/03/10 10:45:30;;;;;;;9.52;6.90;;;17.90;43.70;;;;;;4947292;28;95873;-70
2022/03/10 10:48:06;;;;;;;10.90;6.82;;;18.00;43.80;;;;;;4949576;28;95135;-70
2022/03/10 10:50:34;;;;;;;10.82;6.30;;;18.10;44.20;;;;;;4950615;28;92919;-70
2022/03/10 10:53:00;;;;;;;9.32;6.63;;;18.10;44.20;;;;;;4951336;28;92454;-70
2022/03/10 10:55:36;;;;;;;15.52;6.55;;;18.20;43.90;;;;;;4949721;28;94025;-70
2022/03/10 10:58:09;;;;;;;9.60;6.28;;;18.20;44.70;;;;;;4950498;28;93019;-69
2022/03/10 11:00:46;;;;;;;9.82;6.13;;;18.20;44.80;;;;;;4950390;28;92770;-70
2022/03/10 11:03:22;;;;;;;7.57;5.90;;;18.30;44.80;;;;;;4949444;28;92940;-70
2022/03/10 11:05:49;;;;;;;8.63;6.30;;;18.30;44.90;;;;;;4950721;28;93433;-70
2022/03/10 11:08:20;;;;;;;8.27;6.30;;;18.30;44.80;;;;;;4950876;28;93368;-69
2022/03/10 11:10:47;;;;;;;7.97;6.10;;;18.30;44.90;;;;;;4952399;28;95244;-69
2022/03/10 11:13:15;;;;;;;7.28;6.38;;;18.30;45.00;;;;;;4959021;28;92505;-70
2022/03/10 11:15:43;;;;;;;8.00;6.07;;;18.30;44.90;;;;;;4957430;28;93294;-71
2022/03/10 11:18:10;;;;;;;7.47;6.00;;;18.30;45.10;;;;;;4953987;28;93331;-70
2022/03/10 11:20:38;;;;;;;7.05;6.30;;;18.20;44.90;;;;;;4954152;28;92606;-70
2022/03/10 11:23:22;;;;;;;10.35;6.35;;;18.30;45.10;;;;;;4954032;28;92635;-70
2022/03/10 11:26:26;;;;;;;7.22;5.80;;;18.30;45.10;;;;;;4954279;28;93332;-70
2022/03/10 11:28:54;;;;;;;8.98;5.72;;;18.30;45.30;;;;;;4953754;28;94661;-70
2022/03/10 11:31:21;;;;;;;7.00;5.35;;;18.30;44.90;;;;;;4953380;28;92950;-71
2022/03/10 11:33:48;;;;;;;7.53;5.53;;;18.30;44.90;;;;;;4953696;28;93122;-71
2022/03/10 11:36:24;;;;;;;9.20;5.45;;;18.30;45.30;;;;;;4951545;28;95911;-70
2022/03/10 11:39:05;;;;;;;8.95;5.45;;;18.30;45.30;;;;;;4954283;28;95530;-70
2022/03/10 11:41:45;;;;;;;6.82;5.30;;;18.30;45.40;;;;;;4952951;28;92678;-70
2022/03/10 11:44:11;;;;;;;6.90;5.57;;;18.30;45.50;;;;;;4951979;28;92969;-71
2022/03/10 11:46:54;;;;;;;7.22;5.47;;;18.30;45.60;;;;;;4952426;28;94158;-71
2022/03/10 11:49:20;;;;;;;6.15;5.18;;;18.40;45.20;;;;;;4952198;28;93210;-70
2022/03/10 11:51:52;;;;;;;7.10;5.50;;;18.40;45.20;;;;;;4952753;28;92625;-70
2022/03/10 11:54:26;;;;;;;6.73;5.60;;;18.40;45.20;;;;;;4953054;28;92057;-69
2022/03/10 11:56:52;;;;;;;6.22;4.90;;;18.40;45.00;;;;;;4952618;28;94273;-71
2022/03/10 11:59:37;;;;;;;8.63;5.18;;;18.40;45.40;;;;;;4952502;28;94238;-69
2022/03/10 12:02:04;;;;;;;7.80;5.30;;;18.40;45.30;;;;;;4951614;28;95059;-69
2022/03/10 12:04:39;;;;;;;10.95;5.15;;;18.40;45.10;;;;;;4935429;28;92669;-70
2022/03/10 12:07:08;;;;;;;9.25;5.53;;;18.40;45.20;;;;;;4952884;28;94106;-69
2022/03/10 12:09:38;;;;;;;7.70;5.30;;;18.40;45.20;;;;;;4952723;28;94642;-69
2022/03/10 12:12:20;;;;;;;5.75;4.93;;;18.50;45.20;;;;;;4952669;28;92440;-70
2022/03/10 12:14:47;;;;;;;6.45;5.13;;;18.60;46.40;;;;;;4951824;28;92659;-70
2022/03/10 12:17:54;;;;;;;6.95;4.63;;;18.60;45.30;;;;;;4952561;28;95367;-71
2022/03/10 12:20:24;;;;;;;7.70;5.10;;;18.70;45.40;;;;;;4951898;28;95077;-69
2022/03/10 12:23:06;;;;;;;5.93;4.55;;;18.70;45.20;;;;;;4952953;28;92574;-70
2022/03/10 12:26:03;;;;;;;6.55;4.60;;;18.90;45.30;;;;;;4952144;28;93212;-69
2022/03/10 12:28:32;;;;;;;6.97;4.68;;;19.00;45.20;;;;;;4949391;28;96720;-69
2022/03/10 12:31:16;;;;;;;6.85;5.00;;;19.00;45.00;;;;;;4953048;28;96866;-69
2022/03/10 12:33:47;;;;;;;6.63;4.85;;;19.10;44.80;;;;;;4952860;28;92745;-70
2022/03/10 12:36:15;;;;;;;6.55;4.47;;;19.10;44.80;;;;;;4952436;28;92917;-70
2022/03/10 12:38:46;;;;;;;6.32;4.53;;;19.10;44.80;;;;;;4952179;28;94226;-67
2022/03/10 12:41:14;;;;;;;5.90;4.32;;;19.10;44.70;;;;;;4951965;28;92551;-67
2022/03/10 12:43:41;;;;;;;5.93;4.78;;;19.10;44.80;;;;;;4952029;28;92985;-68
2022/03/10 12:46:07;;;;;;;6.22;4.82;;;19.10;44.70;;;;;;4952188;28;91908;-67
2022/03/10 12:48:38;;;;;;;5.63;4.63;;;19.10;44.70;;;;;;4952239;28;93792;-68
2022/03/10 12:51:04;;;;;;;5.65;4.47;;;19.10;44.90;;;;;;4952814;28;92693;-69
2022/03/10 12:53:33;;;;;;;6.43;4.88;;;19.00;44.80;;;;;;4950976;28;95452;-68
2022/03/10 12:55:59;;;;;;;6.00;4.43;;;19.00;45.00;;;;;;4951740;28;93046;-67
2022/03/10 12:58:32;;;;;;;8.07;4.90;;;19.00;45.30;;;;;;4951673;28;94567;-69
2022/03/10 13:01:05;;;;;;;6.63;4.32;;;19.00;45.30;;;;;;4953664;28;93042;-69
2022/03/10 13:03:48;;;;;;;6.07;4.80;;;19.00;45.50;;;;;;4953658;28;93014;-68
2022/03/10 13:06:15;;;;;;;6.82;4.45;;;19.00;45.10;;;;;;4953039;28;92996;-68
2022/03/10 13:08:43;;;;;;;5.60;4.55;;;19.00;45.00;;;;;;4952270;28;93000;-68
2022/03/10 13:11:11;;;;;;;6.85;4.50;;;19.00;44.80;;;;;;4952511;28;93843;-68
2022/03/10 13:13:38;;;;;;;5.45;4.13;;;18.90;44.70;;;;;;4951964;28;93146;-69
2022/03/10 13:16:05;;;;;;;5.75;4.90;;;18.90;44.70;;;;;;4951791;28;92919;-68
2022/03/10 13:18:57;;;;;;;6.05;4.72;;;18.90;44.80;;;;;;4949844;28;96719;-69
2022/03/10 13:21:23;;;;;;;6.30;4.43;;;18.80;44.60;;;;;;4945984;28;96384;-68
2022/03/10 13:23:48;;;;;;;5.55;4.95;;;18.80;44.80;;;;;;4951185;28;102446;-69
2022/03/10 13:26:14;;;;;;;6.97;4.82;;;18.80;44.80;;;;;;4952840;28;92889;-69
2022/03/10 13:28:39;;;;;;;5.72;4.30;;;18.70;44.70;;;;;;4952408;28;92573;-68
2022/03/10 13:31:06;;;;;;;4.63;4.10;;;18.70;44.80;;;;;;4951531;28;93820;-68
2022/03/10 13:33:33;;;;;;;6.72;4.70;;;18.70;44.80;;;;;;4950268;28;92861;-68
2022/03/10 13:35:58;;;;;;;6.00;4.95;;;18.70;44.80;;;;;;4951401;28;92166;-69
2022/03/10 13:38:28;;;;;;;6.00;4.47;;;18.70;44.80;;;;;;4950154;28;94158;-69
2022/03/10 13:41:01;;;;;;;5.75;4.60;;;18.70;44.80;;;;;;4951064;28;94030;-68
2022/03/10 13:43:35;;;;;;;6.13;4.47;;;18.60;44.70;;;;;;4950478;28;94961;-69
2022/03/10 13:46:17;;;;;;;6.55;4.78;;;18.60;44.80;;;;;;4951157;28;92589;-69
2022/03/10 13:48:45;;;;;;;5.40;4.47;;;18.60;44.70;;;;;;4950842;28;94165;-69
2022/03/10 13:51:12;;;;;;;6.03;4.70;;;18.60;44.70;;;;;;4951117;28;93108;-68
2022/03/10 13:53:38;;;;;;;7.05;4.80;;;18.60;44.70;;;;;;4951737;28;93116;-69
2022/03/10 13:56:04;;;;;;;7.97;4.95;;;18.60;44.70;;;;;;4950415;28;92537;-69
2022/03/10 13:58:30;;;;;;;6.40;4.85;;;18.60;44.60;;;;;;4950931;28;93248;-69
2022/03/10 14:01:09;;;;;;;6.93;4.88;;;18.60;44.50;;;;;;4951230;28;93000;-69
2022/03/10 14:03:42;;;;;;;5.18;4.63;;;18.60;44.60;;;;;;4951025;28;93071;-69
2022/03/10 14:06:13;;;;;;;5.55;4.93;;;18.60;44.60;;;;;;4951620;28;92965;-68
2022/03/10 14:08:51;;;;;;;6.85;4.80;;;18.60;44.60;;;;;;4950305;28;95587;-69
2022/03/10 14:11:19;;;;;;;6.60;4.30;;;18.60;44.60;;;;;;4950489;28;95116;-68
2022/03/10 14:13:47;;;;;;;5.30;4.80;;;18.60;44.70;;;;;;4950677;28;92628;-69
2022/03/10 14:16:19;;;;;;;6.35;4.82;;;18.60;44.70;;;;;;4951357;28;93121;-69
2022/03/10 14:18:47;;;;;;;6.65;4.78;;;18.60;44.70;;;;;;4950840;28;93746;-69
2022/03/10 14:21:14;;;;;;;4.85;4.35;;;18.60;44.60;;;;;;4949947;28;95026;-69
2022/03/10 14:23:40;;;;;;;6.22;4.57;;;18.60;44.70;;;;;;4950668;28;92577;-69
2022/03/10 14:26:16;;;;;;;5.40;4.57;;;18.60;44.60;;;;;;4950525;28;92997;-69
2022/03/10 14:28:48;;;;;;;6.45;4.72;;;18.70;44.60;;;;;;4950638;28;94205;-68
2022/03/10 14:31:14;;;;;;;5.80;4.53;;;18.70;45.60;;;;;;4950008;28;93862;-69
2022/03/10 14:33:42;;;;;;;5.63;4.78;;;18.60;44.50;;;;;;4949712;28;95557;-69